createdAt,value
2022-12-31T00:01:52.851Z,18.12
2022-12-31T00:04:56.520Z,15.00
2022-12-31T00:07:59.879Z,13.00
2022-12-31T00:11:03.504Z,12.05
2022-12-31T00:14:07.293Z,12.80
2022-12-31T00:17:11.249Z,13.65
2022-12-31T00:20:14.633Z,12.77
2022-12-31T00:23:18.215Z,13.27
2022-12-31T00:26:24.989Z,13.10
2022-12-31T00:29:28.594Z,12.63
2022-12-31T00:32:31.910Z,12.98
2022-12-31T00:35:36.546Z,13.88
2022-12-31T00:38:41.383Z,14.13
2022-12-31T00:41:45.508Z,12.65
2022-12-31T00:44:49.042Z,14.32
2022-12-31T00:47:55.103Z,13.30
2022-12-31T00:50:58.765Z,12.50
2022-12-31T00:54:02.357Z,14.20
2022-12-31T00:57:05.517Z,13.75
2022-12-31T01:00:10.980Z,15.90
2022-12-31T01:03:14.222Z,15.48
2022-12-31T01:06:18.329Z,14.52
2022-12-31T01:09:21.898Z,15.23
2022-12-31T01:12:25.793Z,17.83
2022-12-31T01:15:29.106Z,19.08
2022-12-31T01:18:34.407Z,21.75
2022-12-31T01:21:40.942Z,23.20
2022-12-31T01:24:44.636Z,24.25
2022-12-31T01:27:47.757Z,23.17
2022-12-31T01:30:54.145Z,26.23
2022-12-31T01:33:58.034Z,26.33
2022-12-31T01:37:01.545Z,24.98
2022-12-31T01:40:05.900Z,26.02
2022-12-31T01:43:18.176Z,25.17
2022-12-31T01:46:40.446Z,23.42
2022-12-31T01:49:58.571Z,24.85
2022-12-31T01:53:05.195Z,22.63
2022-12-31T01:56:09.204Z,25.02
2022-12-31T01:59:17.751Z,23.58
2022-12-31T02:02:21.450Z,23.13
2022-12-31T02:05:38.311Z,23.73
2022-12-31T02:08:42.327Z,22.35
2022-12-31T02:11:46.319Z,23.30
2022-12-31T02:14:53.846Z,23.62
2022-12-31T02:18:27.077Z,22.85
2022-12-31T02:21:30.604Z,22.52
2022-12-31T02:25:06.594Z,20.67
2022-12-31T02:28:34.821Z,21.48
2022-12-31T02:31:50.707Z,19.55
2022-12-31T02:35:03.283Z,20.37
2022-12-31T02:38:14.823Z,18.80
2022-12-31T02:41:38.337Z,19.50
2022-12-31T02:44:42.914Z,17.65
2022-12-31T02:48:25.340Z,17.62
2022-12-31T02:51:45.278Z,17.17
2022-12-31T02:54:54.700Z,17.77
2022-12-31T02:58:11.488Z,18.17
2022-12-31T03:01:44.078Z,18.30
2022-12-31T03:04:52.308Z,17.10
2022-12-31T03:07:55.515Z,17.60
2022-12-31T03:10:58.979Z,18.08
2022-12-31T03:14:02.456Z,18.05
2022-12-31T03:17:06.176Z,17.62
2022-12-31T03:20:28.483Z,18.10
2022-12-31T03:23:33.684Z,16.83
2022-12-31T03:26:36.853Z,16.33
2022-12-31T03:29:40.430Z,16.40
2022-12-31T03:32:47.301Z,16.90
2022-12-31T03:35:53.196Z,16.27
2022-12-31T03:38:56.935Z,16.87
2022-12-31T03:42:00.512Z,17.08
2022-12-31T03:45:04.908Z,17.95
2022-12-31T03:48:09.630Z,19.02
2022-12-31T03:51:13.620Z,18.67
2022-12-31T03:54:17.363Z,17.10
2022-12-31T03:57:20.634Z,17.67
2022-12-31T04:00:24.525Z,16.73
2022-12-31T04:03:28.887Z,16.42
2022-12-31T04:06:32.052Z,16.42
2022-12-31T04:09:35.826Z,17.23
2022-12-31T04:12:39.354Z,16.40
2022-12-31T04:15:42.798Z,16.30
2022-12-31T04:18:46.133Z,16.25
2022-12-31T04:21:49.862Z,19.23
2022-12-31T04:24:53.084Z,17.95
2022-12-31T04:27:58.189Z,18.12
2022-12-31T04:31:01.399Z,17.87
2022-12-31T04:34:04.961Z,17.48
2022-12-31T04:37:08.292Z,17.12
2022-12-31T04:40:14.413Z,17.03
2022-12-31T04:43:18.165Z,17.80
2022-12-31T04:46:29.325Z,17.95
2022-12-31T04:49:32.692Z,17.25
2022-12-31T04:52:42.333Z,16.37
2022-12-31T04:55:46.284Z,18.20
2022-12-31T04:58:50.325Z,17.95
2022-12-31T05:01:53.688Z,17.17
2022-12-31T05:04:57.411Z,15.68
2022-12-31T05:08:00.620Z,17.30
2022-12-31T05:11:05.332Z,17.13
2022-12-31T05:14:08.463Z,17.00
2022-12-31T05:17:12.211Z,17.10
2022-12-31T05:20:15.529Z,17.00
2022-12-31T05:23:22.775Z,18.75
2022-12-31T05:26:26.416Z,17.27
2022-12-31T05:29:31.462Z,17.65
2022-12-31T05:32:36.869Z,17.80
2022-12-31T05:35:40.180Z,16.20
2022-12-31T05:38:43.298Z,16.08
2022-12-31T05:41:46.719Z,16.30
2022-12-31T05:44:50.294Z,17.20
2022-12-31T05:47:53.760Z,17.77
2022-12-31T05:50:57.446Z,16.83
2022-12-31T05:54:00.847Z,17.20
2022-12-31T05:57:04.789Z,16.75
2022-12-31T06:00:10.276Z,17.62
2022-12-31T06:03:16.614Z,15.90
2022-12-31T06:06:21.257Z,15.75
2022-12-31T06:09:24.622Z,15.60
2022-12-31T06:12:28.337Z,16.40
2022-12-31T06:15:33.239Z,18.92
2022-12-31T06:18:37.611Z,18.83
2022-12-31T06:21:40.779Z,18.05
2022-12-31T06:24:44.232Z,17.73
2022-12-31T06:27:48.021Z,18.05
2022-12-31T06:31:05.976Z,17.80
2022-12-31T06:34:12.726Z,18.87
2022-12-31T06:37:16.236Z,18.60
2022-12-31T06:40:19.436Z,17.52
2022-12-31T06:43:23.092Z,17.97
2022-12-31T06:46:26.940Z,16.35
2022-12-31T06:49:30.916Z,18.40
2022-12-31T06:52:34.200Z,18.17
2022-12-31T06:55:37.985Z,18.67
2022-12-31T06:58:43.087Z,19.58
2022-12-31T07:02:05.239Z,20.92
2022-12-31T07:05:30.288Z,18.83
2022-12-31T07:09:00.005Z,18.62
2022-12-31T07:12:44.014Z,17.48
2022-12-31T07:16:17.503Z,18.13
2022-12-31T07:19:33.269Z,17.40
2022-12-31T07:22:37.540Z,17.65
2022-12-31T07:25:51.616Z,16.58
2022-12-31T07:29:06.131Z,17.20
2022-12-31T07:32:40.704Z,17.92
2022-12-31T07:36:12.377Z,18.40
2022-12-31T07:39:27.354Z,16.83
2022-12-31T07:42:44.853Z,17.77
2022-12-31T07:46:13.657Z,16.62
2022-12-31T07:49:17.718Z,16.87
2022-12-31T07:52:22.314Z,16.42
2022-12-31T07:55:29.189Z,16.10
2022-12-31T07:58:46.324Z,16.58
2022-12-31T08:01:57.151Z,17.23
2022-12-31T08:05:30.496Z,17.10
2022-12-31T08:09:16.331Z,17.33
2022-12-31T08:12:21.578Z,20.43
2022-12-31T08:15:30.138Z,19.45
2022-12-31T08:18:37.070Z,15.95
2022-12-31T08:21:53.881Z,15.27
2022-12-31T08:25:15.982Z,16.83
2022-12-31T08:28:41.225Z,16.62
2022-12-31T08:32:20.662Z,17.00
2022-12-31T08:35:33.807Z,16.15
2022-12-31T08:39:00.663Z,18.30
2022-12-31T08:42:14.507Z,18.60
2022-12-31T08:45:22.965Z,19.57
2022-12-31T08:48:26.891Z,20.65
2022-12-31T08:51:31.150Z,20.92
2022-12-31T08:54:35.077Z,24.20
2022-12-31T08:58:02.925Z,17.77
2022-12-31T09:01:08.147Z,27.05
2022-12-31T09:04:25.164Z,23.17
2022-12-31T09:07:33.913Z,23.58
2022-12-31T09:10:57.859Z,23.48
2022-12-31T09:14:21.469Z,24.65
2022-12-31T09:17:25.711Z,21.03
2022-12-31T09:20:43.052Z,20.65
2022-12-31T09:23:52.965Z,18.83
2022-12-31T09:27:06.309Z,20.07
2022-12-31T09:30:21.571Z,19.05
2022-12-31T09:33:27.703Z,20.55
2022-12-31T09:36:39.714Z,18.50
2022-12-31T09:39:45.847Z,20.50
2022-12-31T09:43:14.590Z,19.58
2022-12-31T09:46:42.783Z,20.02
2022-12-31T09:49:58.135Z,20.00
2022-12-31T09:53:19.511Z,21.65
2022-12-31T09:57:01.976Z,24.60
2022-12-31T10:00:44.212Z,19.25
2022-12-31T10:03:59.889Z,21.60
2022-12-31T10:07:12.865Z,20.50
2022-12-31T10:10:59.298Z,23.38
2022-12-31T10:14:17.243Z,21.37
2022-12-31T10:17:50.098Z,19.80
2022-12-31T10:21:25.079Z,19.37
2022-12-31T10:24:49.376Z,18.73
2022-12-31T10:28:00.500Z,19.08
2022-12-31T10:31:41.070Z,19.23
2022-12-31T10:34:58.665Z,21.15
2022-12-31T10:38:30.106Z,19.30
2022-12-31T10:41:55.783Z,19.43
2022-12-31T10:45:24.134Z,19.17
2022-12-31T10:48:57.941Z,20.95
2022-12-31T10:52:15.656Z,20.20
2022-12-31T10:55:53.100Z,20.27
2022-12-31T10:59:27.388Z,21.60
2022-12-31T11:03:01.120Z,21.20
2022-12-31T11:06:34.124Z,23.95
2022-12-31T11:09:56.345Z,23.37
2022-12-31T11:13:37.289Z,20.37
2022-12-31T11:17:02.444Z,20.75
2022-12-31T11:20:43.095Z,21.25
2022-12-31T11:24:04.833Z,21.58
2022-12-31T11:27:36.269Z,21.60
2022-12-31T11:31:04.807Z,21.17
2022-12-31T11:34:20.647Z,21.77
2022-12-31T11:37:30.094Z,19.92
2022-12-31T11:40:54.302Z,21.40
2022-12-31T11:44:22.560Z,20.67
2022-12-31T11:51:43.089Z,21.42
2022-12-31T11:55:19.597Z,22.58
2022-12-31T11:58:31.305Z,22.10
2022-12-31T12:01:51.859Z,22.30
2022-12-31T12:05:10.682Z,21.23
2022-12-31T12:08:14.916Z,22.50
2022-12-31T12:11:25.691Z,22.73
2022-12-31T12:14:31.591Z,23.37
2022-12-31T12:17:35.796Z,21.52
2022-12-31T12:20:44.389Z,23.58
2022-12-31T12:24:01.355Z,22.80
2022-12-31T12:27:21.691Z,23.30
2022-12-31T12:30:28.405Z,22.95
2022-12-31T12:33:48.121Z,24.12
2022-12-31T12:36:51.730Z,23.50
2022-12-31T12:39:59.281Z,23.23
2022-12-31T12:43:03.370Z,23.70
2022-12-31T12:46:33.427Z,23.95
2022-12-31T12:49:40.390Z,25.50
2022-12-31T12:53:08.126Z,21.90
2022-12-31T12:56:33.993Z,23.23
2022-12-31T12:59:40.871Z,22.65
2022-12-31T13:03:16.494Z,23.83
2022-12-31T13:06:46.220Z,25.08
2022-12-31T13:09:59.446Z,23.80
2022-12-31T13:13:25.439Z,24.20
2022-12-31T13:16:42.989Z,22.57
2022-12-31T13:20:08.140Z,24.20
2022-12-31T13:23:14.165Z,25.30
2022-12-31T13:26:28.562Z,22.95
2022-12-31T13:29:35.050Z,25.43
2022-12-31T13:32:42.950Z,25.50
2022-12-31T13:35:49.118Z,26.62
2022-12-31T13:38:59.156Z,26.00
2022-12-31T13:42:21.464Z,26.63
2022-12-31T13:45:37.294Z,28.45
2022-12-31T13:48:49.814Z,28.87
2022-12-31T13:52:06.278Z,26.62
2022-12-31T13:55:18.569Z,31.70
2022-12-31T13:58:36.131Z,28.27
2022-12-31T14:01:50.753Z,34.08
2022-12-31T14:05:00.727Z,34.95
2022-12-31T14:08:06.587Z,40.73
2022-12-31T14:12:01.479Z,44.50
2022-12-31T14:15:16.689Z,38.20
2022-12-31T14:18:46.275Z,44.03
2022-12-31T14:22:03.686Z,36.80
2022-12-31T14:25:26.539Z,41.13
2022-12-31T14:28:38.334Z,35.65
2022-12-31T14:31:49.840Z,32.15
2022-12-31T14:35:06.634Z,29.60
2022-12-31T14:38:32.610Z,32.25
2022-12-31T14:41:49.047Z,31.92
2022-12-31T14:45:04.296Z,32.63
2022-12-31T14:48:49.572Z,25.90
2022-12-31T14:51:53.116Z,26.02
2022-12-31T14:55:02.725Z,26.45
2022-12-31T14:58:28.091Z,27.27
2022-12-31T15:01:45.225Z,26.50
2022-12-31T15:04:49.073Z,26.85
2022-12-31T15:07:52.078Z,27.15
2022-12-31T15:11:10.705Z,27.70
2022-12-31T15:14:37.391Z,27.97
2022-12-31T15:17:46.983Z,36.33
2022-12-31T15:21:19.405Z,35.58
2022-12-31T15:24:25.453Z,32.03
2022-12-31T15:27:38.972Z,32.07
2022-12-31T15:30:48.755Z,32.53
2022-12-31T15:34:23.776Z,33.72
2022-12-31T15:37:33.346Z,30.10
2022-12-31T15:40:48.471Z,29.93
2022-12-31T15:44:01.184Z,31.10
2022-12-31T15:47:35.517Z,35.65
2022-12-31T15:50:40.003Z,32.05
2022-12-31T15:53:52.322Z,31.63
2022-12-31T15:56:55.859Z,34.97
2022-12-31T16:00:08.091Z,33.92
2022-12-31T16:03:30.319Z,41.67
2022-12-31T16:06:38.254Z,35.05
2022-12-31T16:09:41.994Z,47.67
2022-12-31T16:12:45.859Z,66.28
2022-12-31T16:16:08.963Z,48.90
2022-12-31T16:19:34.078Z,41.80
2022-12-31T16:22:40.117Z,44.83
2022-12-31T16:25:45.579Z,45.67
2022-12-31T16:28:49.645Z,46.47
2022-12-31T16:31:54.507Z,51.47
2022-12-31T16:34:58.056Z,51.28
2022-12-31T16:38:12.474Z,62.43
2022-12-31T16:41:17.780Z,56.85
2022-12-31T16:44:26.974Z,61.15
2022-12-31T16:47:40.602Z,80.95
2022-12-31T16:50:46.598Z,64.47
2022-12-31T16:53:50.664Z,60.70
2022-12-31T16:56:54.269Z,64.68
2022-12-31T17:00:04.458Z,68.20
2022-12-31T17:03:15.656Z,67.93
2022-12-31T17:06:21.555Z,72.03
2022-12-31T17:09:34.321Z,64.78
2022-12-31T17:13:28.446Z,58.70
2022-12-31T17:16:18.526Z,72.72
2022-12-31T17:19:43.927Z,75.65
2022-12-31T17:22:47.324Z,65.20
2022-12-31T17:26:03.360Z,65.00
2022-12-31T17:29:26.111Z,63.65
2022-12-31T17:32:36.847Z,62.30
2022-12-31T17:35:42.601Z,63.38
2022-12-31T17:38:46.190Z,68.60
2022-12-31T17:41:53.611Z,65.35
2022-12-31T17:45:01.713Z,67.68
2022-12-31T17:48:05.865Z,69.18
2022-12-31T17:51:12.280Z,65.18
2022-12-31T17:54:21.089Z,65.87
2022-12-31T17:57:28.256Z,73.45
2022-12-31T18:00:33.419Z,84.07
2022-12-31T18:03:37.025Z,93.37
2022-12-31T18:06:40.483Z,87.68
2022-12-31T18:09:44.013Z,93.30
2022-12-31T18:12:48.643Z,89.47
2022-12-31T18:15:53.563Z,93.35
2022-12-31T18:18:59.209Z,82.82
2022-12-31T18:22:02.929Z,86.18
2022-12-31T18:25:07.572Z,80.03
2022-12-31T18:28:12.001Z,71.47
2022-12-31T18:31:20.616Z,61.60
2022-12-31T18:34:24.116Z,65.20
2022-12-31T18:37:29.060Z,67.10
2022-12-31T18:40:33.187Z,67.57
2022-12-31T18:43:36.563Z,62.65
2022-12-31T18:46:41.044Z,70.00
2022-12-31T18:49:48.738Z,64.68
2022-12-31T18:52:52.805Z,63.28
2022-12-31T18:55:57.926Z,60.63
2022-12-31T18:59:03.431Z,61.08
2022-12-31T19:02:15.367Z,61.05
2022-12-31T19:05:31.184Z,62.50
2022-12-31T19:08:36.657Z,57.00
2022-12-31T19:11:41.176Z,60.15
2022-12-31T19:14:46.293Z,61.30
2022-12-31T19:17:49.751Z,61.95
2022-12-31T19:20:52.971Z,71.97
2022-12-31T19:23:56.643Z,71.30
2022-12-31T19:27:01.133Z,92.60
2022-12-31T19:30:05.160Z,78.90
2022-12-31T19:33:11.316Z,72.40
2022-12-31T19:36:20.313Z,77.47
2022-12-31T19:39:23.488Z,84.72
2022-12-31T19:42:27.247Z,78.40
2022-12-31T19:45:32.404Z,79.72
2022-12-31T19:48:40.717Z,69.82
2022-12-31T19:51:43.954Z,66.80
2022-12-31T19:54:47.578Z,65.50
2022-12-31T19:57:51.474Z,61.70
2022-12-31T20:01:02.346Z,64.70
2022-12-31T20:04:06.930Z,65.32
2022-12-31T20:07:10.217Z,67.93
2022-12-31T20:10:14.732Z,69.35
2022-12-31T20:13:19.107Z,73.30
2022-12-31T20:16:24.704Z,72.22
2022-12-31T20:19:28.024Z,72.90
2022-12-31T20:22:31.956Z,85.72
2022-12-31T20:25:35.146Z,90.65
2022-12-31T20:28:40.727Z,90.33
2022-12-31T20:31:44.068Z,93.30
2022-12-31T20:34:47.549Z,88.03
2022-12-31T20:37:50.852Z,86.80
2022-12-31T20:40:54.508Z,80.60
2022-12-31T20:44:01.288Z,80.45
2022-12-31T20:47:04.815Z,72.85
2022-12-31T20:50:11.879Z,75.10
2022-12-31T20:53:15.580Z,72.03
2022-12-31T20:56:19.253Z,68.45
2022-12-31T20:59:22.755Z,67.83
2022-12-31T21:02:40.215Z,66.72
2022-12-31T21:05:52.243Z,66.40
2022-12-31T21:09:00.095Z,67.73
2022-12-31T21:12:21.945Z,68.60
2022-12-31T21:15:25.147Z,66.30
2022-12-31T21:18:29.717Z,66.57
2022-12-31T21:21:33.887Z,64.90
2022-12-31T21:24:39.248Z,64.18
2022-12-31T21:27:42.664Z,61.70
2022-12-31T21:30:47.355Z,61.90
2022-12-31T21:33:51.680Z,57.95
2022-12-31T21:36:55.681Z,61.75
2022-12-31T21:39:59.024Z,56.60
2022-12-31T21:43:03.132Z,62.10
2022-12-31T21:46:07.708Z,64.05
2022-12-31T21:49:11.153Z,57.47
2022-12-31T21:52:28.006Z,57.30
2022-12-31T21:55:50.154Z,62.53
2022-12-31T21:59:16.954Z,62.92
2022-12-31T22:02:39.596Z,53.60
2022-12-31T22:06:14.701Z,56.30
2022-12-31T22:09:17.867Z,49.58
2022-12-31T22:12:23.141Z,55.47
2022-12-31T22:15:27.211Z,52.62
2022-12-31T22:18:32.325Z,53.75
2022-12-31T22:21:35.685Z,62.75
2022-12-31T22:24:39.213Z,70.47
2022-12-31T22:27:53.041Z,89.62
2022-12-31T22:31:08.205Z,74.93
2022-12-31T22:34:11.542Z,55.07
2022-12-31T22:37:46.555Z,53.67
2022-12-31T22:40:38.091Z,52.17
2022-12-31T22:43:44.012Z,51.07
2022-12-31T22:46:49.342Z,57.72
2022-12-31T22:49:58.198Z,67.62
2022-12-31T22:53:02.920Z,60.45
2022-12-31T22:56:09.165Z,65.53
2022-12-31T22:59:12.751Z,75.93
2022-12-31T23:02:17.490Z,89.22
2022-12-31T23:05:20.633Z,86.77
2022-12-31T23:08:24.282Z,104.53
2022-12-31T23:11:27.560Z,90.57
2022-12-31T23:14:50.934Z,93.70
2022-12-31T23:18:13.616Z,84.03
2022-12-31T23:21:36.483Z,173.77
2022-12-31T23:24:40.770Z,104.00
2022-12-31T23:27:44.258Z,98.37
2022-12-31T23:30:49.329Z,103.97
2022-12-31T23:33:54.300Z,116.12
2022-12-31T23:36:57.669Z,109.30
2022-12-31T23:40:01.369Z,112.50
2022-12-31T23:43:06.567Z,91.45
2022-12-31T23:46:11.229Z,92.17
2022-12-31T23:49:15.062Z,119.93
2022-12-31T23:52:20.489Z,137.73
2022-12-31T23:55:23.860Z,133.77
2022-12-31T23:58:27.419Z,127.85
